sensor_id;sensor_type;location;lat;lon;timestamp;P1;durP1;ratioP1;P2;durP2;ratioP2
61907;SDS011;47864;52.526;19.672;2023-02-22T00:01:27;34.42;;;10.82;;
61907;SDS011;47864;52.526;19.672;2023-02-22T00:03:29;35.08;;;11.05;;
61907;SDS011;47864;52.526;19.672;2023-02-22T00:05:31;39.88;;;10.80;;
61907;SDS011;47864;52.526;19.672;2023-02-22T00:07:33;34.92;;;11.77;;
61907;SDS011;47864;52.526;19.672;2023-02-22T00:09:34;30.73;;;10.05;;
61907;SDS011;47864;52.526;19.672;2023-02-22T00:11:36;38.03;;;11.68;;
61907;SDS011;47864;52.526;19.672;2023-02-22T00:13:38;34.65;;;11.68;;
61907;SDS011;47864;52.526;19.672;2023-02-22T00:15:39;42.42;;;15.73;;
61907;SDS011;47864;52.526;19.672;2023-02-22T00:17:41;33.13;;;12.23;;
61907;SDS011;47864;52.526;19.672;2023-02-22T00:19:43;32.63;;;9.52;;
61907;SDS011;47864;52.526;19.672;2023-02-22T00:21:45;29.55;;;9.77;;
61907;SDS011;47864;52.526;19.672;2023-02-22T00:23:52;36.83;;;11.23;;
61907;SDS011;47864;52.526;19.672;2023-02-22T00:25:54;24.17;;;10.82;;
61907;SDS011;47864;52.526;19.672;2023-02-22T00:27:56;35.38;;;11.07;;
61907;SDS011;47864;52.526;19.672;2023-02-22T00:29:58;33.78;;;10.77;;
61907;SDS011;47864;52.526;19.672;2023-02-22T00:32:00;34.90;;;10.75;;
61907;SDS011;47864;52.526;19.672;2023-02-22T00:34:01;36.85;;;9.60;;
61907;SDS011;47864;52.526;19.672;2023-02-22T00:36:03;32.72;;;9.38;;
61907;SDS011;47864;52.526;19.672;2023-02-22T00:38:05;30.77;;;9.52;;
61907;SDS011;47864;52.526;19.672;2023-02-22T00:40:11;39.65;;;11.77;;
61907;SDS011;47864;52.526;19.672;2023-02-22T00:42:16;38.15;;;12.20;;
61907;SDS011;47864;52.526;19.672;2023-02-22T00:44:18;39.10;;;13.32;;
61907;SDS011;47864;52.526;19.672;2023-02-22T00:46:20;40.60;;;13.20;;
61907;SDS011;47864;52.526;19.672;2023-02-22T00:48:21;46.22;;;17.88;;
61907;SDS011;47864;52.526;19.672;2023-02-22T00:50:23;58.47;;;31.23;;
61907;SDS011;47864;52.526;19.672;2023-02-22T00:52:27;48.67;;;15.93;;
61907;SDS011;47864;52.526;19.672;2023-02-22T00:54:29;42.13;;;17.10;;
61907;SDS011;47864;52.526;19.672;2023-02-22T00:56:31;43.15;;;15.75;;
61907;SDS011;47864;52.526;19.672;2023-02-22T00:58:33;32.40;;;11.70;;
61907;SDS011;47864;52.526;19.672;2023-02-22T01:00:36;34.30;;;9.93;;
61907;SDS011;47864;52.526;19.672;2023-02-22T01:02:41;29.65;;;9.63;;
61907;SDS011;47864;52.526;19.672;2023-02-22T01:04:43;32.78;;;11.88;;
61907;SDS011;47864;52.526;19.672;2023-02-22T01:06:44;42.75;;;12.70;;
61907;SDS011;47864;52.526;19.672;2023-02-22T01:08:46;40.85;;;13.50;;
61907;SDS011;47864;52.526;19.672;2023-02-22T01:10:48;46.08;;;18.02;;
61907;SDS011;47864;52.526;19.672;2023-02-22T01:12:50;52.92;;;21.77;;
61907;SDS011;47864;52.526;19.672;2023-02-22T01:14:52;63.35;;;25.40;;
61907;SDS011;47864;52.526;19.672;2023-02-22T01:16:54;73.18;;;30.38;;
61907;SDS011;47864;52.526;19.672;2023-02-22T01:18:56;86.43;;;34.65;;
61907;SDS011;47864;52.526;19.672;2023-02-22T01:20:58;94.65;;;35.97;;
61907;SDS011;47864;52.526;19.672;2023-02-22T01:23:00;50.22;;;18.55;;
61907;SDS011;47864;52.526;19.672;2023-02-22T01:25:02;41.72;;;15.63;;
61907;SDS011;47864;52.526;19.672;2023-02-22T01:27:04;33.33;;;11.68;;
61907;SDS011;47864;52.526;19.672;2023-02-22T01:29:06;39.20;;;11.38;;
61907;SDS011;47864;52.526;19.672;2023-02-22T01:31:07;33.30;;;13.07;;
61907;SDS011;47864;52.526;19.672;2023-02-22T01:33:09;32.70;;;11.63;;
61907;SDS011;47864;52.526;19.672;2023-02-22T01:35:13;29.65;;;11.77;;
61907;SDS011;47864;52.526;19.672;2023-02-22T01:37:16;26.10;;;8.73;;
61907;SDS011;47864;52.526;19.672;2023-02-22T01:39:18;28.35;;;9.07;;
61907;SDS011;47864;52.526;19.672;2023-02-22T01:41:20;33.38;;;8.70;;
61907;SDS011;47864;52.526;19.672;2023-02-22T01:43:26;27.50;;;8.45;;
61907;SDS011;47864;52.526;19.672;2023-02-22T01:47:33;22.95;;;7.55;;
61907;SDS011;47864;52.526;19.672;2023-02-22T01:49:37;19.65;;;7.18;;
61907;SDS011;47864;52.526;19.672;2023-02-22T01:51:43;16.52;;;6.80;;
61907;SDS011;47864;52.526;19.672;2023-02-22T01:53:51;24.23;;;7.25;;
61907;SDS011;47864;52.526;19.672;2023-02-22T01:55:57;18.83;;;6.47;;
61907;SDS011;47864;52.526;19.672;2023-02-22T01:57:59;17.10;;;5.70;;
61907;SDS011;47864;52.526;19.672;2023-02-22T02:00:09;16.38;;;6.32;;
61907;SDS011;47864;52.526;19.672;2023-02-22T02:02:14;13.00;;;5.63;;
61907;SDS011;47864;52.526;19.672;2023-02-22T02:04:18;15.00;;;6.18;;
61907;SDS011;47864;52.526;19.672;2023-02-22T02:06:21;17.65;;;6.30;;
61907;SDS011;47864;52.526;19.672;2023-02-22T02:08:26;20.30;;;7.03;;
61907;SDS011;47864;52.526;19.672;2023-02-22T02:10:34;18.95;;;8.48;;
61907;SDS011;47864;52.526;19.672;2023-02-22T02:12:35;19.42;;;9.32;;
61907;SDS011;47864;52.526;19.672;2023-02-22T02:14:37;17.92;;;9.05;;
61907;SDS011;47864;52.526;19.672;2023-02-22T02:16:45;13.73;;;7.38;;
61907;SDS011;47864;52.526;19.672;2023-02-22T02:18:52;16.73;;;7.32;;
61907;SDS011;47864;52.526;19.672;2023-02-22T02:30:37;17.77;;;10.60;;
61907;SDS011;47864;52.526;19.672;2023-02-22T02:32:42;14.63;;;8.35;;
61907;SDS011;47864;52.526;19.672;2023-02-22T02:41:53;11.82;;;5.15;;
61907;SDS011;47864;52.526;19.672;2023-02-22T02:44:32;13.60;;;5.30;;
61907;SDS011;47864;52.526;19.672;2023-02-22T02:48:45;67.88;;;27.00;;
61907;SDS011;47864;52.526;19.672;2023-02-22T02:50:52;66.50;;;25.98;;
61907;SDS011;47864;52.526;19.672;2023-02-22T02:52:58;87.97;;;33.45;;
61907;SDS011;47864;52.526;19.672;2023-02-22T02:55:02;91.47;;;38.85;;
61907;SDS011;47864;52.526;19.672;2023-02-22T02:57:06;86.35;;;36.47;;
61907;SDS011;47864;52.526;19.672;2023-02-22T02:59:22;84.82;;;39.78;;
61907;SDS011;47864;52.526;19.672;2023-02-22T03:08:42;14.88;;;6.03;;
61907;SDS011;47864;52.526;19.672;2023-02-22T03:12:59;14.98;;;6.88;;
61907;SDS011;47864;52.526;19.672;2023-02-22T03:17:27;9.73;;;5.47;;
61907;SDS011;47864;52.526;19.672;2023-02-22T03:24:05;12.35;;;5.97;;
61907;SDS011;47864;52.526;19.672;2023-02-22T03:26:21;12.27;;;5.75;;
61907;SDS011;47864;52.526;19.672;2023-02-22T03:28:29;14.85;;;6.90;;
61907;SDS011;47864;52.526;19.672;2023-02-22T03:30:37;16.88;;;7.70;;
61907;SDS011;47864;52.526;19.672;2023-02-22T03:32:43;15.48;;;7.30;;
61907;SDS011;47864;52.526;19.672;2023-02-22T03:34:50;17.88;;;7.93;;
61907;SDS011;47864;52.526;19.672;2023-02-22T03:36:59;16.15;;;6.72;;
61907;SDS011;47864;52.526;19.672;2023-02-22T03:39:06;13.45;;;6.30;;
61907;SDS011;47864;52.526;19.672;2023-02-22T03:41:12;13.05;;;5.88;;
61907;SDS011;47864;52.526;19.672;2023-02-22T03:43:20;13.70;;;6.78;;
61907;SDS011;47864;52.526;19.672;2023-02-22T03:45:26;14.32;;;5.97;;
61907;SDS011;47864;52.526;19.672;2023-02-22T03:47:37;15.63;;;6.13;;
61907;SDS011;47864;52.526;19.672;2023-02-22T03:49:51;15.98;;;8.85;;
61907;SDS011;47864;52.526;19.672;2023-02-22T03:51:58;15.60;;;8.45;;
61907;SDS011;47864;52.526;19.672;2023-02-22T03:54:00;15.70;;;8.13;;
61907;SDS011;47864;52.526;19.672;2023-02-22T03:56:03;14.63;;;8.93;;
61907;SDS011;47864;52.526;19.672;2023-02-22T03:58:10;9.95;;;5.70;;
61907;SDS011;47864;52.526;19.672;2023-02-22T04:00:16;13.07;;;6.22;;
61907;SDS011;47864;52.526;19.672;2023-02-22T04:02:19;12.13;;;6.20;;
61907;SDS011;47864;52.526;19.672;2023-02-22T04:04:21;14.57;;;5.93;;
61907;SDS011;47864;52.526;19.672;2023-02-22T04:09:23;12.30;;;6.32;;
61907;SDS011;47864;52.526;19.672;2023-02-22T04:11:24;13.32;;;7.38;;
61907;SDS011;47864;52.526;19.672;2023-02-22T04:13:26;10.50;;;5.35;;
61907;SDS011;47864;52.526;19.672;2023-02-22T04:15:28;15.38;;;5.80;;
61907;SDS011;47864;52.526;19.672;2023-02-22T04:17:30;10.88;;;5.30;;
61907;SDS011;47864;52.526;19.672;2023-02-22T04:19:31;23.83;;;10.82;;
61907;SDS011;47864;52.526;19.672;2023-02-22T04:21:33;83.88;;;34.60;;
61907;SDS011;47864;52.526;19.672;2023-02-22T04:23:34;223.65;;;99.30;;
61907;SDS011;47864;52.526;19.672;2023-02-22T04:25:36;94.80;;;39.83;;
61907;SDS011;47864;52.526;19.672;2023-02-22T04:27:37;225.68;;;131.88;;
61907;SDS011;47864;52.526;19.672;2023-02-22T04:29:39;41.92;;;22.55;;
61907;SDS011;47864;52.526;19.672;2023-02-22T04:31:40;49.95;;;25.35;;
61907;SDS011;47864;52.526;19.672;2023-02-22T04:33:42;23.50;;;9.68;;
61907;SDS011;47864;52.526;19.672;2023-02-22T04:35:44;44.55;;;15.05;;
61907;SDS011;47864;52.526;19.672;2023-02-22T04:37:45;115.28;;;46.80;;
61907;SDS011;47864;52.526;19.672;2023-02-22T04:39:46;68.43;;;26.25;;
61907;SDS011;47864;52.526;19.672;2023-02-22T04:41:48;241.93;;;84.95;;
61907;SDS011;47864;52.526;19.672;2023-02-22T04:43:50;122.60;;;50.80;;
61907;SDS011;47864;52.526;19.672;2023-02-22T04:45:51;964.40;;;465.17;;
61907;SDS011;47864;52.526;19.672;2023-02-22T04:47:52;733.63;;;345.77;;
61907;SDS011;47864;52.526;19.672;2023-02-22T04:49:54;270.17;;;113.10;;
61907;SDS011;47864;52.526;19.672;2023-02-22T04:51:55;308.77;;;103.35;;
61907;SDS011;47864;52.526;19.672;2023-02-22T04:53:57;208.40;;;75.03;;
61907;SDS011;47864;52.526;19.672;2023-02-22T04:55:58;398.92;;;118.60;;
61907;SDS011;47864;52.526;19.672;2023-02-22T04:58:00;640.70;;;208.45;;
61907;SDS011;47864;52.526;19.672;2023-02-22T05:00:02;1025.32;;;373.38;;
61907;SDS011;47864;52.526;19.672;2023-02-22T05:02:05;273.65;;;92.15;;
61907;SDS011;47864;52.526;19.672;2023-02-22T05:04:06;76.38;;;30.45;;
61907;SDS011;47864;52.526;19.672;2023-02-22T05:06:08;90.18;;;36.78;;
61907;SDS011;47864;52.526;19.672;2023-02-22T05:08:09;67.78;;;32.97;;
61907;SDS011;47864;52.526;19.672;2023-02-22T05:10:11;76.22;;;42.70;;
61907;SDS011;47864;52.526;19.672;2023-02-22T05:12:12;100.15;;;44.10;;
61907;SDS011;47864;52.526;19.672;2023-02-22T05:14:14;74.13;;;33.65;;
61907;SDS011;47864;52.526;19.672;2023-02-22T05:16:15;39.08;;;20.02;;
61907;SDS011;47864;52.526;19.672;2023-02-22T05:18:17;36.90;;;21.15;;
61907;SDS011;47864;52.526;19.672;2023-02-22T05:20:26;65.15;;;28.95;;
61907;SDS011;47864;52.526;19.672;2023-02-22T05:22:29;31.75;;;16.00;;
61907;SDS011;47864;52.526;19.672;2023-02-22T05:24:31;54.92;;;24.55;;
61907;SDS011;47864;52.526;19.672;2023-02-22T05:26:32;47.17;;;25.83;;
61907;SDS011;47864;52.526;19.672;2023-02-22T05:28:34;21.02;;;11.98;;
61907;SDS011;47864;52.526;19.672;2023-02-22T05:30:35;21.27;;;11.18;;
61907;SDS011;47864;52.526;19.672;2023-02-22T05:32:37;32.70;;;17.80;;
61907;SDS011;47864;52.526;19.672;2023-02-22T05:34:38;20.67;;;12.13;;
61907;SDS011;47864;52.526;19.672;2023-02-22T05:36:40;21.73;;;14.00;;
61907;SDS011;47864;52.526;19.672;2023-02-22T05:38:42;17.90;;;10.10;;
61907;SDS011;47864;52.526;19.672;2023-02-22T05:40:43;19.63;;;8.95;;
61907;SDS011;47864;52.526;19.672;2023-02-22T05:42:45;19.33;;;10.38;;
61907;SDS011;47864;52.526;19.672;2023-02-22T05:44:49;22.75;;;11.13;;
61907;SDS011;47864;52.526;19.672;2023-02-22T05:46:50;20.33;;;10.02;;
61907;SDS011;47864;52.526;19.672;2023-02-22T05:48:52;34.83;;;14.95;;
61907;SDS011;47864;52.526;19.672;2023-02-22T05:50:53;46.33;;;18.63;;
61907;SDS011;47864;52.526;19.672;2023-02-22T05:52:55;35.53;;;16.35;;
61907;SDS011;47864;52.526;19.672;2023-02-22T05:54:56;33.85;;;16.88;;
61907;SDS011;47864;52.526;19.672;2023-02-22T05:56:58;21.60;;;10.93;;
61907;SDS011;47864;52.526;19.672;2023-02-22T05:58:59;16.33;;;9.95;;
61907;SDS011;47864;52.526;19.672;2023-02-22T06:01:01;15.52;;;8.52;;
61907;SDS011;47864;52.526;19.672;2023-02-22T06:03:04;15.82;;;8.77;;
61907;SDS011;47864;52.526;19.672;2023-02-22T06:05:07;20.77;;;11.27;;
61907;SDS011;47864;52.526;19.672;2023-02-22T06:07:09;18.20;;;10.35;;
61907;SDS011;47864;52.526;19.672;2023-02-22T06:09:11;21.95;;;11.48;;
61907;SDS011;47864;52.526;19.672;2023-02-22T06:11:12;17.40;;;10.48;;
61907;SDS011;47864;52.526;19.672;2023-02-22T06:13:14;18.77;;;10.45;;
61907;SDS011;47864;52.526;19.672;2023-02-22T06:15:16;28.40;;;13.25;;
61907;SDS011;47864;52.526;19.672;2023-02-22T06:17:18;36.95;;;16.70;;
61907;SDS011;47864;52.526;19.672;2023-02-22T06:19:20;34.85;;;15.52;;
61907;SDS011;47864;52.526;19.672;2023-02-22T06:21:22;40.45;;;19.02;;
61907;SDS011;47864;52.526;19.672;2023-02-22T06:23:24;53.88;;;23.50;;
61907;SDS011;47864;52.526;19.672;2023-02-22T06:25:27;43.30;;;19.52;;
61907;SDS011;47864;52.526;19.672;2023-02-22T06:27:30;20.08;;;10.10;;
61907;SDS011;47864;52.526;19.672;2023-02-22T06:29:32;22.98;;;11.75;;
61907;SDS011;47864;52.526;19.672;2023-02-22T06:31:34;21.15;;;13.15;;
61907;SDS011;47864;52.526;19.672;2023-02-22T06:33:35;19.75;;;12.57;;
61907;SDS011;47864;52.526;19.672;2023-02-22T06:35:37;15.93;;;9.02;;
61907;SDS011;47864;52.526;19.672;2023-02-22T06:37:39;16.20;;;9.20;;
61907;SDS011;47864;52.526;19.672;2023-02-22T06:39:40;16.70;;;8.50;;
61907;SDS011;47864;52.526;19.672;2023-02-22T06:41:42;22.48;;;10.43;;
61907;SDS011;47864;52.526;19.672;2023-02-22T06:43:46;18.30;;;9.30;;
61907;SDS011;47864;52.526;19.672;2023-02-22T06:45:48;20.30;;;9.00;;
61907;SDS011;47864;52.526;19.672;2023-02-22T06:47:49;20.27;;;9.45;;
61907;SDS011;47864;52.526;19.672;2023-02-22T06:49:52;16.60;;;8.50;;
61907;SDS011;47864;52.526;19.672;2023-02-22T06:51:54;19.88;;;8.57;;
61907;SDS011;47864;52.526;19.672;2023-02-22T06:53:55;13.35;;;8.27;;
61907;SDS011;47864;52.526;19.672;2023-02-22T06:55:57;17.10;;;8.25;;
61907;SDS011;47864;52.526;19.672;2023-02-22T06:57:59;15.65;;;8.32;;
61907;SDS011;47864;52.526;19.672;2023-02-22T07:00:01;20.05;;;11.55;;
61907;SDS011;47864;52.526;19.672;2023-02-22T07:02:03;22.52;;;12.32;;
61907;SDS011;47864;52.526;19.672;2023-02-22T07:04:04;26.63;;;16.67;;
61907;SDS011;47864;52.526;19.672;2023-02-22T07:06:06;19.25;;;11.10;;
61907;SDS011;47864;52.526;19.672;2023-02-22T07:08:08;26.77;;;11.77;;
61907;SDS011;47864;52.526;19.672;2023-02-22T07:10:24;31.13;;;15.52;;
61907;SDS011;47864;52.526;19.672;2023-02-22T07:12:28;26.70;;;14.63;;
61907;SDS011;47864;52.526;19.672;2023-02-22T07:14:30;33.08;;;16.15;;
61907;SDS011;47864;52.526;19.672;2023-02-22T07:16:31;23.35;;;13.95;;
61907;SDS011;47864;52.526;19.672;2023-02-22T07:18:32;24.20;;;13.35;;
61907;SDS011;47864;52.526;19.672;2023-02-22T07:20:34;41.75;;;20.42;;
61907;SDS011;47864;52.526;19.672;2023-02-22T07:22:36;26.45;;;13.48;;
61907;SDS011;47864;52.526;19.672;2023-02-22T07:24:38;28.37;;;14.30;;
61907;SDS011;47864;52.526;19.672;2023-02-22T07:26:40;36.97;;;18.98;;
61907;SDS011;47864;52.526;19.672;2023-02-22T07:28:42;24.30;;;13.27;;
61907;SDS011;47864;52.526;19.672;2023-02-22T07:30:43;16.73;;;9.45;;
61907;SDS011;47864;52.526;19.672;2023-02-22T07:32:45;20.60;;;11.45;;
61907;SDS011;47864;52.526;19.672;2023-02-22T07:34:47;17.00;;;11.30;;
61907;SDS011;47864;52.526;19.672;2023-02-22T07:36:48;49.10;;;29.45;;
61907;SDS011;47864;52.526;19.672;2023-02-22T07:38:50;25.05;;;16.65;;
61907;SDS011;47864;52.526;19.672;2023-02-22T07:40:52;17.73;;;10.18;;
61907;SDS011;47864;52.526;19.672;2023-02-22T07:44:57;17.75;;;9.45;;
61907;SDS011;47864;52.526;19.672;2023-02-22T07:46:58;19.08;;;9.30;;
61907;SDS011;47864;52.526;19.672;2023-02-22T07:48:59;19.38;;;11.13;;
61907;SDS011;47864;52.526;19.672;2023-02-22T07:51:01;22.08;;;13.55;;
61907;SDS011;47864;52.526;19.672;2023-02-22T07:53:04;13.68;;;8.80;;
61907;SDS011;47864;52.526;19.672;2023-02-22T07:55:07;15.23;;;9.93;;
61907;SDS011;47864;52.526;19.672;2023-02-22T07:57:08;15.82;;;11.20;;
61907;SDS011;47864;52.526;19.672;2023-02-22T07:59:10;16.35;;;11.07;;
61907;SDS011;47864;52.526;19.672;2023-02-22T08:01:11;12.40;;;8.60;;
61907;SDS011;47864;52.526;19.672;2023-02-22T08:03:14;21.67;;;12.93;;
61907;SDS011;47864;52.526;19.672;2023-02-22T08:05:17;17.73;;;10.55;;
61907;SDS011;47864;52.526;19.672;2023-02-22T08:07:19;9.88;;;7.13;;
61907;SDS011;47864;52.526;19.672;2023-02-22T08:09:21;16.92;;;8.10;;
61907;SDS011;47864;52.526;19.672;2023-02-22T08:11:23;18.45;;;8.40;;
61907;SDS011;47864;52.526;19.672;2023-02-22T08:13:25;19.88;;;9.93;;
61907;SDS011;47864;52.526;19.672;2023-02-22T08:15:28;13.63;;;7.63;;
61907;SDS011;47864;52.526;19.672;2023-02-22T08:17:34;21.25;;;12.32;;
61907;SDS011;47864;52.526;19.672;2023-02-22T08:19:35;21.50;;;11.75;;
61907;SDS011;47864;52.526;19.672;2023-02-22T08:21:37;13.90;;;8.15;;
61907;SDS011;47864;52.526;19.672;2023-02-22T08:23:38;13.15;;;6.43;;
61907;SDS011;47864;52.526;19.672;2023-02-22T08:25:40;15.77;;;8.52;;
61907;SDS011;47864;52.526;19.672;2023-02-22T08:27:42;14.38;;;7.95;;
61907;SDS011;47864;52.526;19.672;2023-02-22T08:29:46;15.13;;;7.60;;
61907;SDS011;47864;52.526;19.672;2023-02-22T08:33:52;14.43;;;7.40;;
61907;SDS011;47864;52.526;19.672;2023-02-22T08:35:53;18.50;;;9.05;;
61907;SDS011;47864;52.526;19.672;2023-02-22T08:37:56;11.25;;;7.70;;
61907;SDS011;47864;52.526;19.672;2023-02-22T08:40:00;16.77;;;10.45;;
61907;SDS011;47864;52.526;19.672;2023-02-22T08:42:02;18.13;;;9.98;;
61907;SDS011;47864;52.526;19.672;2023-02-22T08:44:03;20.65;;;10.48;;
61907;SDS011;47864;52.526;19.672;2023-02-22T08:46:05;24.05;;;13.40;;
61907;SDS011;47864;52.526;19.672;2023-02-22T08:48:06;15.70;;;9.18;;
61907;SDS011;47864;52.526;19.672;2023-02-22T08:50:08;13.73;;;7.00;;
61907;SDS011;47864;52.526;19.672;2023-02-22T08:52:15;9.55;;;6.50;;
61907;SDS011;47864;52.526;19.672;2023-02-22T08:54:17;10.40;;;6.68;;
61907;SDS011;47864;52.526;19.672;2023-02-22T08:56:18;10.55;;;6.50;;
61907;SDS011;47864;52.526;19.672;2023-02-22T08:58:21;13.40;;;7.15;;
61907;SDS011;47864;52.526;19.672;2023-02-22T09:00:22;12.52;;;6.90;;
61907;SDS011;47864;52.526;19.672;2023-02-22T09:02:24;13.63;;;8.00;;
61907;SDS011;47864;52.526;19.672;2023-02-22T09:04:26;56.55;;;26.48;;
61907;SDS011;47864;52.526;19.672;2023-02-22T09:06:27;521.63;;;311.50;;
61907;SDS011;47864;52.526;19.672;2023-02-22T09:08:29;14.80;;;9.95;;
61907;SDS011;47864;52.526;19.672;2023-02-22T09:10:32;10.02;;;6.43;;
61907;SDS011;47864;52.526;19.672;2023-02-22T09:12:34;14.75;;;8.95;;
61907;SDS011;47864;52.526;19.672;2023-02-22T09:14:36;13.85;;;8.52;;
61907;SDS011;47864;52.526;19.672;2023-02-22T09:18:41;16.60;;;12.50;;
61907;SDS011;47864;52.526;19.672;2023-02-22T09:20:44;49.60;;;25.88;;
61907;SDS011;47864;52.526;19.672;2023-02-22T09:22:47;27.25;;;14.07;;
61907;SDS011;47864;52.526;19.672;2023-02-22T09:24:50;23.77;;;12.82;;
61907;SDS011;47864;52.526;19.672;2023-02-22T09:26:52;34.00;;;15.20;;
61907;SDS011;47864;52.526;19.672;2023-02-22T09:28:54;94.70;;;38.83;;
61907;SDS011;47864;52.526;19.672;2023-02-22T09:30:55;19.10;;;10.32;;
61907;SDS011;47864;52.526;19.672;2023-02-22T09:33:01;17.98;;;10.27;;
61907;SDS011;47864;52.526;19.672;2023-02-22T09:35:05;22.58;;;12.68;;
61907;SDS011;47864;52.526;19.672;2023-02-22T09:37:07;42.00;;;22.40;;
61907;SDS011;47864;52.526;19.672;2023-02-22T09:39:09;43.00;;;23.48;;
61907;SDS011;47864;52.526;19.672;2023-02-22T09:41:22;35.53;;;19.17;;
61907;SDS011;47864;52.526;19.672;2023-02-22T09:45:45;14.35;;;7.95;;
61907;SDS011;47864;52.526;19.672;2023-02-22T09:48:09;11.38;;;6.93;;
61907;SDS011;47864;52.526;19.672;2023-02-22T09:50:23;16.50;;;8.50;;
61907;SDS011;47864;52.526;19.672;2023-02-22T09:52:29;12.32;;;6.45;;
61907;SDS011;47864;52.526;19.672;2023-02-22T09:54:39;8.98;;;6.28;;
61907;SDS011;47864;52.526;19.672;2023-02-22T09:56:44;11.30;;;6.68;;
61907;SDS011;47864;52.526;19.672;2023-02-22T09:58:49;10.20;;;6.75;;
61907;SDS011;47864;52.526;19.672;2023-02-22T10:00:56;21.52;;;11.25;;
61907;SDS011;47864;52.526;19.672;2023-02-22T10:03:19;26.13;;;12.10;;
61907;SDS011;47864;52.526;19.672;2023-02-22T10:05:30;25.33;;;14.60;;
61907;SDS011;47864;52.526;19.672;2023-02-22T10:07:50;13.77;;;8.20;;
61907;SDS011;47864;52.526;19.672;2023-02-22T10:09:57;22.55;;;13.18;;
61907;SDS011;47864;52.526;19.672;2023-02-22T10:12:01;32.53;;;13.68;;
61907;SDS011;47864;52.526;19.672;2023-02-22T10:19:26;20.30;;;10.02;;
61907;SDS011;47864;52.526;19.672;2023-02-22T10:26:25;18.13;;;9.35;;
61907;SDS011;47864;52.526;19.672;2023-02-22T10:28:36;69.90;;;32.50;;
61907;SDS011;47864;52.526;19.672;2023-02-22T10:30:59;33.72;;;17.67;;
61907;SDS011;47864;52.526;19.672;2023-02-22T10:33:07;68.93;;;38.13;;
61907;SDS011;47864;52.526;19.672;2023-02-22T10:35:16;62.15;;;34.20;;
61907;SDS011;47864;52.526;19.672;2023-02-22T10:37:25;22.80;;;13.23;;
61907;SDS011;47864;52.526;19.672;2023-02-22T10:39:30;31.80;;;17.92;;
61907;SDS011;47864;52.526;19.672;2023-02-22T10:41:37;40.70;;;21.48;;
61907;SDS011;47864;52.526;19.672;2023-02-22T10:43:46;25.55;;;14.85;;
61907;SDS011;47864;52.526;19.672;2023-02-22T10:45:49;13.63;;;9.18;;
61907;SDS011;47864;52.526;19.672;2023-02-22T10:47:54;16.52;;;9.68;;
61907;SDS011;47864;52.526;19.672;2023-02-22T10:49:57;17.45;;;9.95;;
61907;SDS011;47864;52.526;19.672;2023-02-22T10:52:01;39.35;;;16.05;;
61907;SDS011;47864;52.526;19.672;2023-02-22T10:56:17;16.75;;;7.93;;
61907;SDS011;47864;52.526;19.672;2023-02-22T10:58:22;10.10;;;6.72;;
61907;SDS011;47864;52.526;19.672;2023-02-22T11:00:32;22.00;;;12.45;;
61907;SDS011;47864;52.526;19.672;2023-02-22T11:04:50;44.80;;;26.42;;
61907;SDS011;47864;52.526;19.672;2023-02-22T11:09:06;17.33;;;10.25;;
61907;SDS011;47864;52.526;19.672;2023-02-22T11:11:21;26.00;;;15.25;;
61907;SDS011;47864;52.526;19.672;2023-02-22T11:13:27;23.08;;;13.48;;
61907;SDS011;47864;52.526;19.672;2023-02-22T11:15:38;21.65;;;13.27;;
61907;SDS011;47864;52.526;19.672;2023-02-22T11:17:40;40.38;;;21.67;;
61907;SDS011;47864;52.526;19.672;2023-02-22T11:19:45;33.50;;;15.27;;
61907;SDS011;47864;52.526;19.672;2023-02-22T11:24:26;12.50;;;8.13;;
61907;SDS011;47864;52.526;19.672;2023-02-22T11:26:44;10.75;;;7.53;;
61907;SDS011;47864;52.526;19.672;2023-02-22T11:28:49;11.88;;;7.65;;
61907;SDS011;47864;52.526;19.672;2023-02-22T11:30:52;18.55;;;10.57;;
61907;SDS011;47864;52.526;19.672;2023-02-22T11:33:16;26.67;;;13.85;;
61907;SDS011;47864;52.526;19.672;2023-02-22T11:35:33;17.50;;;9.77;;
61907;SDS011;47864;52.526;19.672;2023-02-22T11:37:37;15.15;;;7.65;;
61907;SDS011;47864;52.526;19.672;2023-02-22T11:39:38;14.77;;;8.52;;
61907;SDS011;47864;52.526;19.672;2023-02-22T11:41:40;16.77;;;8.90;;
61907;SDS011;47864;52.526;19.672;2023-02-22T11:43:45;12.40;;;6.97;;
61907;SDS011;47864;52.526;19.672;2023-02-22T11:45:54;27.30;;;14.07;;
61907;SDS011;47864;52.526;19.672;2023-02-22T11:48:02;25.60;;;14.30;;
61907;SDS011;47864;52.526;19.672;2023-02-22T11:50:10;14.07;;;8.30;;
61907;SDS011;47864;52.526;19.672;2023-02-22T11:52:23;16.80;;;11.90;;
61907;SDS011;47864;52.526;19.672;2023-02-22T11:54:54;12.23;;;8.52;;
61907;SDS011;47864;52.526;19.672;2023-02-22T12:06:44;48.50;;;23.10;;
61907;SDS011;47864;52.526;19.672;2023-02-22T12:11:22;34.75;;;21.20;;
61907;SDS011;47864;52.526;19.672;2023-02-22T12:13:41;69.18;;;33.20;;
61907;SDS011;47864;52.526;19.672;2023-02-22T12:15:51;28.48;;;19.00;;
61907;SDS011;47864;52.526;19.672;2023-02-22T12:20:04;70.18;;;34.10;;
61907;SDS011;47864;52.526;19.672;2023-02-22T12:22:20;31.65;;;16.60;;
61907;SDS011;47864;52.526;19.672;2023-02-22T12:24:29;25.67;;;15.90;;
61907;SDS011;47864;52.526;19.672;2023-02-22T12:26:36;29.92;;;15.80;;
61907;SDS011;47864;52.526;19.672;2023-02-22T12:28:52;16.83;;;11.07;;
61907;SDS011;47864;52.526;19.672;2023-02-22T12:31:02;41.15;;;19.20;;
61907;SDS011;47864;52.526;19.672;2023-02-22T12:33:13;20.50;;;10.40;;
61907;SDS011;47864;52.526;19.672;2023-02-22T12:35:22;30.75;;;15.25;;
61907;SDS011;47864;52.526;19.672;2023-02-22T12:40:13;20.90;;;10.55;;
61907;SDS011;47864;52.526;19.672;2023-02-22T12:42:40;23.88;;;14.00;;
61907;SDS011;47864;52.526;19.672;2023-02-22T12:44:51;20.40;;;11.33;;
61907;SDS011;47864;52.526;19.672;2023-02-22T12:46:58;20.45;;;10.68;;
61907;SDS011;47864;52.526;19.672;2023-02-22T12:49:26;16.08;;;9.80;;
61907;SDS011;47864;52.526;19.672;2023-02-22T12:53:52;29.05;;;14.98;;
61907;SDS011;47864;52.526;19.672;2023-02-22T12:56:03;23.88;;;12.25;;
61907;SDS011;47864;52.526;19.672;2023-02-22T12:58:26;17.50;;;9.82;;
61907;SDS011;47864;52.526;19.672;2023-02-22T13:00:33;15.52;;;8.73;;
61907;SDS011;47864;52.526;19.672;2023-02-22T13:02:43;19.15;;;11.05;;
61907;SDS011;47864;52.526;19.672;2023-02-22T13:04:51;27.75;;;14.75;;
61907;SDS011;47864;52.526;19.672;2023-02-22T13:13:23;17.55;;;9.52;;
61907;SDS011;47864;52.526;19.672;2023-02-22T13:25:41;90.57;;;54.92;;
61907;SDS011;47864;52.526;19.672;2023-02-22T13:27:53;27.83;;;17.92;;
61907;SDS011;47864;52.526;19.672;2023-02-22T13:30:12;43.17;;;16.20;;
61907;SDS011;47864;52.526;19.672;2023-02-22T13:34:42;26.70;;;13.05;;
61907;SDS011;47864;52.526;19.672;2023-02-22T13:37:10;13.73;;;7.10;;
61907;SDS011;47864;52.526;19.672;2023-02-22T13:53:13;24.17;;;12.52;;
61907;SDS011;47864;52.526;19.672;2023-02-22T13:55:23;32.83;;;11.50;;
61907;SDS011;47864;52.526;19.672;2023-02-22T13:57:37;35.80;;;18.50;;
61907;SDS011;47864;52.526;19.672;2023-02-22T13:59:43;17.30;;;9.75;;
61907;SDS011;47864;52.526;19.672;2023-02-22T14:01:46;14.35;;;7.18;;
61907;SDS011;47864;52.526;19.672;2023-02-22T14:05:50;49.25;;;16.60;;